sensor_id;sensor_type;location;lat;lon;timestamp;P1;durP1;ratioP1;P2;durP2;ratioP2
5890;SDS011;2971;52.420;7.080;2022-12-17T00:02:14;265.60;;;68.13;;
5890;SDS011;2971;52.420;7.080;2022-12-17T00:04:58;271.23;;;67.03;;
5890;SDS011;2971;52.420;7.080;2022-12-17T00:07:42;262.03;;;72.67;;
5890;SDS011;2971;52.420;7.080;2022-12-17T00:10:25;276.00;;;68.83;;
5890;SDS011;2971;52.420;7.080;2022-12-17T00:13:18;276.87;;;74.30;;
5890;SDS011;2971;52.420;7.080;2022-12-17T00:16:03;289.03;;;72.93;;
5890;SDS011;2971;52.420;7.080;2022-12-17T00:18:48;301.40;;;73.60;;
5890;SDS011;2971;52.420;7.080;2022-12-17T00:21:32;279.70;;;71.60;;
5890;SDS011;2971;52.420;7.080;2022-12-17T00:24:16;276.93;;;71.57;;
5890;SDS011;2971;52.420;7.080;2022-12-17T00:27:00;296.00;;;73.20;;
5890;SDS011;2971;52.420;7.080;2022-12-17T00:29:43;300.03;;;76.03;;
5890;SDS011;2971;52.420;7.080;2022-12-17T00:32:27;303.17;;;77.80;;
5890;SDS011;2971;52.420;7.080;2022-12-17T00:35:11;270.30;;;71.60;;
5890;SDS011;2971;52.420;7.080;2022-12-17T00:37:55;280.13;;;73.73;;
5890;SDS011;2971;52.420;7.080;2022-12-17T00:40:39;269.37;;;69.30;;
5890;SDS011;2971;52.420;7.080;2022-12-17T00:43:22;279.03;;;74.07;;
5890;SDS011;2971;52.420;7.080;2022-12-17T00:46:06;307.20;;;78.63;;
5890;SDS011;2971;52.420;7.080;2022-12-17T00:48:50;285.63;;;74.30;;
5890;SDS011;2971;52.420;7.080;2022-12-17T00:51:33;292.17;;;75.70;;
5890;SDS011;2971;52.420;7.080;2022-12-17T00:54:17;284.27;;;73.40;;
5890;SDS011;2971;52.420;7.080;2022-12-17T00:57:01;287.23;;;75.73;;
5890;SDS011;2971;52.420;7.080;2022-12-17T00:59:44;300.07;;;77.00;;
5890;SDS011;2971;52.420;7.080;2022-12-17T01:02:29;263.63;;;70.83;;
5890;SDS011;2971;52.420;7.080;2022-12-17T01:05:13;269.50;;;68.40;;
5890;SDS011;2971;52.420;7.080;2022-12-17T01:08:04;273.80;;;70.07;;
5890;SDS011;2971;52.420;7.080;2022-12-17T01:10:52;259.90;;;72.20;;
5890;SDS011;2971;52.420;7.080;2022-12-17T01:13:50;300.73;;;76.47;;
5890;SDS011;2971;52.420;7.080;2022-12-17T01:16:35;277.87;;;72.27;;
5890;SDS011;2971;52.420;7.080;2022-12-17T01:19:19;295.53;;;74.80;;
5890;SDS011;2971;52.420;7.080;2022-12-17T01:22:03;306.50;;;77.37;;
5890;SDS011;2971;52.420;7.080;2022-12-17T01:24:48;283.23;;;72.07;;
5890;SDS011;2971;52.420;7.080;2022-12-17T01:27:31;282.57;;;75.30;;
5890;SDS011;2971;52.420;7.080;2022-12-17T01:30:15;287.60;;;73.57;;
5890;SDS011;2971;52.420;7.080;2022-12-17T01:33:04;311.53;;;76.73;;
5890;SDS011;2971;52.420;7.080;2022-12-17T01:35:49;296.73;;;78.50;;
5890;SDS011;2971;52.420;7.080;2022-12-17T01:38:37;271.77;;;69.17;;
5890;SDS011;2971;52.420;7.080;2022-12-17T01:41:20;265.43;;;68.00;;
5890;SDS011;2971;52.420;7.080;2022-12-17T01:47:25;295.83;;;74.70;;
5890;SDS011;2971;52.420;7.080;2022-12-17T01:50:11;278.63;;;69.53;;
5890;SDS011;2971;52.420;7.080;2022-12-17T01:52:56;261.27;;;66.13;;
5890;SDS011;2971;52.420;7.080;2022-12-17T01:55:42;284.40;;;70.27;;
5890;SDS011;2971;52.420;7.080;2022-12-17T01:58:26;267.80;;;71.63;;
5890;SDS011;2971;52.420;7.080;2022-12-17T02:01:11;269.97;;;72.07;;
5890;SDS011;2971;52.420;7.080;2022-12-17T02:03:55;251.57;;;67.73;;
5890;SDS011;2971;52.420;7.080;2022-12-17T02:06:40;257.87;;;66.77;;
5890;SDS011;2971;52.420;7.080;2022-12-17T02:09:30;269.47;;;65.67;;
5890;SDS011;2971;52.420;7.080;2022-12-17T02:12:37;266.70;;;68.77;;
5890;SDS011;2971;52.420;7.080;2022-12-17T02:15:30;254.63;;;67.33;;
5890;SDS011;2971;52.420;7.080;2022-12-17T02:18:21;249.37;;;62.43;;
5890;SDS011;2971;52.420;7.080;2022-12-17T02:21:08;244.73;;;62.40;;
5890;SDS011;2971;52.420;7.080;2022-12-17T02:27:00;238.73;;;64.43;;
5890;SDS011;2971;52.420;7.080;2022-12-17T02:29:47;225.30;;;60.53;;
5890;SDS011;2971;52.420;7.080;2022-12-17T02:32:33;252.90;;;69.33;;
5890;SDS011;2971;52.420;7.080;2022-12-17T02:35:36;238.03;;;65.63;;
5890;SDS011;2971;52.420;7.080;2022-12-17T02:38:25;244.80;;;61.77;;
5890;SDS011;2971;52.420;7.080;2022-12-17T02:41:13;236.60;;;64.10;;
5890;SDS011;2971;52.420;7.080;2022-12-17T02:43:58;248.03;;;61.27;;
5890;SDS011;2971;52.420;7.080;2022-12-17T02:46:43;228.07;;;62.97;;
5890;SDS011;2971;52.420;7.080;2022-12-17T02:49:28;232.80;;;59.93;;
5890;SDS011;2971;52.420;7.080;2022-12-17T02:52:12;228.80;;;60.20;;
5890;SDS011;2971;52.420;7.080;2022-12-17T02:54:58;216.83;;;55.13;;
5890;SDS011;2971;52.420;7.080;2022-12-17T02:57:42;219.97;;;55.83;;
5890;SDS011;2971;52.420;7.080;2022-12-17T03:00:27;236.33;;;61.03;;
5890;SDS011;2971;52.420;7.080;2022-12-17T03:03:11;232.10;;;56.53;;
5890;SDS011;2971;52.420;7.080;2022-12-17T03:05:55;209.70;;;57.50;;
5890;SDS011;2971;52.420;7.080;2022-12-17T03:08:41;217.23;;;54.33;;
5890;SDS011;2971;52.420;7.080;2022-12-17T03:11:28;233.77;;;62.93;;
5890;SDS011;2971;52.420;7.080;2022-12-17T03:14:13;224.37;;;56.70;;
5890;SDS011;2971;52.420;7.080;2022-12-17T03:16:57;232.87;;;58.73;;
5890;SDS011;2971;52.420;7.080;2022-12-17T03:19:41;239.57;;;57.40;;
5890;SDS011;2971;52.420;7.080;2022-12-17T03:22:28;238.13;;;61.03;;
5890;SDS011;2971;52.420;7.080;2022-12-17T03:25:12;230.47;;;59.83;;
5890;SDS011;2971;52.420;7.080;2022-12-17T03:28:02;205.57;;;55.53;;
5890;SDS011;2971;52.420;7.080;2022-12-17T03:30:47;200.03;;;53.77;;
5890;SDS011;2971;52.420;7.080;2022-12-17T03:33:31;203.63;;;52.77;;
5890;SDS011;2971;52.420;7.080;2022-12-17T03:36:15;186.90;;;50.43;;
5890;SDS011;2971;52.420;7.080;2022-12-17T03:38:59;200.77;;;54.03;;
5890;SDS011;2971;52.420;7.080;2022-12-17T03:41:42;217.30;;;56.40;;
5890;SDS011;2971;52.420;7.080;2022-12-17T03:44:26;212.57;;;55.07;;
5890;SDS011;2971;52.420;7.080;2022-12-17T03:47:10;203.90;;;56.97;;
5890;SDS011;2971;52.420;7.080;2022-12-17T03:49:54;191.60;;;55.13;;
5890;SDS011;2971;52.420;7.080;2022-12-17T03:52:37;186.83;;;52.20;;
5890;SDS011;2971;52.420;7.080;2022-12-17T03:55:21;189.83;;;50.83;;
5890;SDS011;2971;52.420;7.080;2022-12-17T03:58:05;201.70;;;50.03;;
5890;SDS011;2971;52.420;7.080;2022-12-17T04:00:49;193.97;;;51.60;;
5890;SDS011;2971;52.420;7.080;2022-12-17T04:03:32;183.80;;;51.67;;
5890;SDS011;2971;52.420;7.080;2022-12-17T04:06:16;190.97;;;50.87;;
5890;SDS011;2971;52.420;7.080;2022-12-17T04:09:00;224.53;;;58.60;;
5890;SDS011;2971;52.420;7.080;2022-12-17T04:11:44;202.83;;;55.23;;
5890;SDS011;2971;52.420;7.080;2022-12-17T04:14:28;215.80;;;54.10;;
5890;SDS011;2971;52.420;7.080;2022-12-17T04:17:12;195.40;;;52.97;;
5890;SDS011;2971;52.420;7.080;2022-12-17T04:19:56;193.50;;;53.17;;
5890;SDS011;2971;52.420;7.080;2022-12-17T04:22:39;195.03;;;52.50;;
5890;SDS011;2971;52.420;7.080;2022-12-17T04:25:23;215.93;;;57.73;;
5890;SDS011;2971;52.420;7.080;2022-12-17T04:28:07;189.23;;;55.00;;
5890;SDS011;2971;52.420;7.080;2022-12-17T04:30:51;181.60;;;52.53;;
5890;SDS011;2971;52.420;7.080;2022-12-17T04:33:34;194.90;;;54.33;;
5890;SDS011;2971;52.420;7.080;2022-12-17T04:36:18;196.90;;;54.70;;
5890;SDS011;2971;52.420;7.080;2022-12-17T04:39:02;195.30;;;52.90;;
5890;SDS011;2971;52.420;7.080;2022-12-17T04:41:46;184.90;;;53.90;;
5890;SDS011;2971;52.420;7.080;2022-12-17T04:44:29;196.20;;;51.50;;
5890;SDS011;2971;52.420;7.080;2022-12-17T04:47:13;179.80;;;51.70;;
5890;SDS011;2971;52.420;7.080;2022-12-17T04:49:57;186.90;;;50.67;;
5890;SDS011;2971;52.420;7.080;2022-12-17T04:52:40;199.67;;;51.40;;
5890;SDS011;2971;52.420;7.080;2022-12-17T04:55:24;190.87;;;52.93;;
5890;SDS011;2971;52.420;7.080;2022-12-17T04:58:08;190.50;;;51.77;;
5890;SDS011;2971;52.420;7.080;2022-12-17T05:00:53;185.90;;;51.43;;
5890;SDS011;2971;52.420;7.080;2022-12-17T05:03:37;198.90;;;55.60;;
5890;SDS011;2971;52.420;7.080;2022-12-17T05:06:22;199.13;;;53.93;;
5890;SDS011;2971;52.420;7.080;2022-12-17T05:09:07;221.37;;;57.53;;
5890;SDS011;2971;52.420;7.080;2022-12-17T05:11:51;206.97;;;56.43;;
5890;SDS011;2971;52.420;7.080;2022-12-17T05:14:35;208.20;;;55.90;;
5890;SDS011;2971;52.420;7.080;2022-12-17T05:17:19;193.80;;;53.67;;
5890;SDS011;2971;52.420;7.080;2022-12-17T05:20:02;189.33;;;50.37;;
5890;SDS011;2971;52.420;7.080;2022-12-17T05:22:47;179.93;;;49.47;;
5890;SDS011;2971;52.420;7.080;2022-12-17T05:25:31;204.30;;;50.63;;
5890;SDS011;2971;52.420;7.080;2022-12-17T05:28:15;209.13;;;52.03;;
5890;SDS011;2971;52.420;7.080;2022-12-17T05:30:58;201.93;;;54.97;;
5890;SDS011;2971;52.420;7.080;2022-12-17T05:33:43;222.77;;;54.70;;
5890;SDS011;2971;52.420;7.080;2022-12-17T05:36:31;211.23;;;54.27;;
5890;SDS011;2971;52.420;7.080;2022-12-17T05:39:15;195.63;;;51.03;;
5890;SDS011;2971;52.420;7.080;2022-12-17T05:41:59;207.07;;;53.70;;
5890;SDS011;2971;52.420;7.080;2022-12-17T05:44:42;237.27;;;54.60;;
5890;SDS011;2971;52.420;7.080;2022-12-17T05:47:26;221.43;;;56.90;;
5890;SDS011;2971;52.420;7.080;2022-12-17T05:50:10;232.70;;;55.43;;
5890;SDS011;2971;52.420;7.080;2022-12-17T05:52:59;244.03;;;58.70;;
5890;SDS011;2971;52.420;7.080;2022-12-17T05:55:50;246.83;;;59.07;;
5890;SDS011;2971;52.420;7.080;2022-12-17T05:58:35;255.23;;;61.50;;
5890;SDS011;2971;52.420;7.080;2022-12-17T06:01:19;223.67;;;52.57;;
5890;SDS011;2971;52.420;7.080;2022-12-17T06:04:02;246.80;;;58.23;;
5890;SDS011;2971;52.420;7.080;2022-12-17T06:06:49;251.50;;;59.43;;
5890;SDS011;2971;52.420;7.080;2022-12-17T06:09:47;241.53;;;57.17;;
5890;SDS011;2971;52.420;7.080;2022-12-17T06:12:31;227.23;;;54.23;;
5890;SDS011;2971;52.420;7.080;2022-12-17T06:15:14;245.43;;;59.13;;
5890;SDS011;2971;52.420;7.080;2022-12-17T06:17:58;246.37;;;54.43;;
5890;SDS011;2971;52.420;7.080;2022-12-17T06:20:42;278.77;;;59.30;;
5890;SDS011;2971;52.420;7.080;2022-12-17T06:23:26;240.30;;;57.33;;
5890;SDS011;2971;52.420;7.080;2022-12-17T06:26:10;241.77;;;56.97;;
5890;SDS011;2971;52.420;7.080;2022-12-17T06:28:54;253.00;;;59.23;;
5890;SDS011;2971;52.420;7.080;2022-12-17T06:31:37;278.50;;;59.67;;
5890;SDS011;2971;52.420;7.080;2022-12-17T06:34:21;245.97;;;56.93;;
5890;SDS011;2971;52.420;7.080;2022-12-17T06:37:05;225.13;;;56.63;;
5890;SDS011;2971;52.420;7.080;2022-12-17T06:39:49;235.07;;;57.87;;
5890;SDS011;2971;52.420;7.080;2022-12-17T06:42:33;229.23;;;56.90;;
5890;SDS011;2971;52.420;7.080;2022-12-17T06:45:17;227.93;;;55.03;;
5890;SDS011;2971;52.420;7.080;2022-12-17T06:48:04;220.87;;;52.70;;
5890;SDS011;2971;52.420;7.080;2022-12-17T06:50:53;207.67;;;50.53;;
5890;SDS011;2971;52.420;7.080;2022-12-17T06:53:38;200.43;;;51.70;;
5890;SDS011;2971;52.420;7.080;2022-12-17T06:56:22;215.30;;;50.73;;
5890;SDS011;2971;52.420;7.080;2022-12-17T06:59:06;211.20;;;54.83;;
5890;SDS011;2971;52.420;7.080;2022-12-17T07:01:50;217.03;;;54.83;;
5890;SDS011;2971;52.420;7.080;2022-12-17T07:04:33;224.50;;;55.63;;
5890;SDS011;2971;52.420;7.080;2022-12-17T07:07:17;202.50;;;50.33;;
5890;SDS011;2971;52.420;7.080;2022-12-17T07:10:02;223.07;;;51.80;;
5890;SDS011;2971;52.420;7.080;2022-12-17T07:12:46;233.90;;;52.70;;
5890;SDS011;2971;52.420;7.080;2022-12-17T07:15:30;230.57;;;53.37;;
5890;SDS011;2971;52.420;7.080;2022-12-17T07:18:13;218.17;;;54.63;;
5890;SDS011;2971;52.420;7.080;2022-12-17T07:20:57;229.20;;;52.30;;
5890;SDS011;2971;52.420;7.080;2022-12-17T07:23:41;195.87;;;51.13;;
5890;SDS011;2971;52.420;7.080;2022-12-17T07:26:25;216.93;;;54.13;;
5890;SDS011;2971;52.420;7.080;2022-12-17T07:29:09;184.60;;;50.73;;
5890;SDS011;2971;52.420;7.080;2022-12-17T07:31:52;173.57;;;44.87;;
5890;SDS011;2971;52.420;7.080;2022-12-17T07:34:36;180.70;;;51.63;;
5890;SDS011;2971;52.420;7.080;2022-12-17T07:37:20;193.53;;;50.43;;
5890;SDS011;2971;52.420;7.080;2022-12-17T07:40:04;172.77;;;49.53;;
5890;SDS011;2971;52.420;7.080;2022-12-17T07:42:48;159.87;;;48.13;;
5890;SDS011;2971;52.420;7.080;2022-12-17T07:45:51;171.00;;;48.00;;
5890;SDS011;2971;52.420;7.080;2022-12-17T07:48:35;190.40;;;51.00;;
5890;SDS011;2971;52.420;7.080;2022-12-17T07:51:19;181.93;;;50.10;;
5890;SDS011;2971;52.420;7.080;2022-12-17T07:54:03;180.20;;;50.53;;
5890;SDS011;2971;52.420;7.080;2022-12-17T07:56:47;195.97;;;51.70;;
5890;SDS011;2971;52.420;7.080;2022-12-17T07:59:31;189.77;;;51.00;;
5890;SDS011;2971;52.420;7.080;2022-12-17T08:02:15;185.47;;;50.70;;
5890;SDS011;2971;52.420;7.080;2022-12-17T08:04:58;179.50;;;49.70;;
5890;SDS011;2971;52.420;7.080;2022-12-17T08:07:42;173.50;;;49.30;;
5890;SDS011;2971;52.420;7.080;2022-12-17T08:10:26;177.53;;;49.87;;
5890;SDS011;2971;52.420;7.080;2022-12-17T08:13:10;174.70;;;48.50;;
5890;SDS011;2971;52.420;7.080;2022-12-17T08:15:53;173.80;;;51.37;;
5890;SDS011;2971;52.420;7.080;2022-12-17T08:18:38;190.83;;;51.97;;
5890;SDS011;2971;52.420;7.080;2022-12-17T08:21:22;176.43;;;48.03;;
5890;SDS011;2971;52.420;7.080;2022-12-17T08:24:05;186.57;;;52.33;;
5890;SDS011;2971;52.420;7.080;2022-12-17T08:26:50;175.87;;;50.00;;
5890;SDS011;2971;52.420;7.080;2022-12-17T08:29:34;167.87;;;46.80;;
5890;SDS011;2971;52.420;7.080;2022-12-17T08:32:17;172.40;;;49.80;;
5890;SDS011;2971;52.420;7.080;2022-12-17T08:35:02;173.67;;;47.07;;
5890;SDS011;2971;52.420;7.080;2022-12-17T08:37:46;164.90;;;47.17;;
5890;SDS011;2971;52.420;7.080;2022-12-17T08:40:30;150.90;;;43.47;;
5890;SDS011;2971;52.420;7.080;2022-12-17T08:43:14;148.30;;;45.50;;
5890;SDS011;2971;52.420;7.080;2022-12-17T08:45:58;149.10;;;45.13;;
5890;SDS011;2971;52.420;7.080;2022-12-17T08:48:41;164.37;;;47.87;;
5890;SDS011;2971;52.420;7.080;2022-12-17T08:51:45;153.87;;;44.87;;
5890;SDS011;2971;52.420;7.080;2022-12-17T08:54:29;162.07;;;47.80;;
5890;SDS011;2971;52.420;7.080;2022-12-17T08:57:13;149.63;;;43.93;;
5890;SDS011;2971;52.420;7.080;2022-12-17T08:59:57;166.83;;;44.37;;
5890;SDS011;2971;52.420;7.080;2022-12-17T09:02:40;163.07;;;46.70;;
5890;SDS011;2971;52.420;7.080;2022-12-17T09:05:24;168.13;;;48.63;;
5890;SDS011;2971;52.420;7.080;2022-12-17T09:08:08;164.90;;;47.67;;
5890;SDS011;2971;52.420;7.080;2022-12-17T09:10:52;161.30;;;46.60;;
5890;SDS011;2971;52.420;7.080;2022-12-17T09:13:36;172.50;;;45.67;;
5890;SDS011;2971;52.420;7.080;2022-12-17T09:16:21;175.03;;;48.70;;
5890;SDS011;2971;52.420;7.080;2022-12-17T09:19:05;173.53;;;47.37;;
5890;SDS011;2971;52.420;7.080;2022-12-17T09:21:49;185.60;;;48.43;;
5890;SDS011;2971;52.420;7.080;2022-12-17T09:24:33;184.30;;;51.40;;
5890;SDS011;2971;52.420;7.080;2022-12-17T09:27:17;176.63;;;49.00;;
5890;SDS011;2971;52.420;7.080;2022-12-17T09:30:01;184.83;;;51.53;;
5890;SDS011;2971;52.420;7.080;2022-12-17T09:32:46;195.10;;;53.10;;
5890;SDS011;2971;52.420;7.080;2022-12-17T09:35:30;196.03;;;50.60;;
5890;SDS011;2971;52.420;7.080;2022-12-17T09:38:14;184.80;;;54.40;;
5890;SDS011;2971;52.420;7.080;2022-12-17T09:41:05;181.47;;;49.53;;
5890;SDS011;2971;52.420;7.080;2022-12-17T09:44:18;181.93;;;46.30;;
5890;SDS011;2971;52.420;7.080;2022-12-17T09:50:18;181.67;;;50.20;;
5890;SDS011;2971;52.420;7.080;2022-12-17T09:53:02;176.80;;;48.20;;
5890;SDS011;2971;52.420;7.080;2022-12-17T09:56:01;172.83;;;47.10;;
5890;SDS011;2971;52.420;7.080;2022-12-17T09:58:46;178.63;;;51.37;;
5890;SDS011;2971;52.420;7.080;2022-12-17T10:01:33;158.53;;;46.10;;
5890;SDS011;2971;52.420;7.080;2022-12-17T10:04:19;169.00;;;46.33;;
5890;SDS011;2971;52.420;7.080;2022-12-17T10:07:12;170.20;;;47.07;;
5890;SDS011;2971;52.420;7.080;2022-12-17T10:09:59;160.53;;;46.33;;
5890;SDS011;2971;52.420;7.080;2022-12-17T10:12:44;173.13;;;47.33;;
5890;SDS011;2971;52.420;7.080;2022-12-17T10:15:28;155.77;;;46.37;;
5890;SDS011;2971;52.420;7.080;2022-12-17T10:18:12;157.43;;;48.50;;
5890;SDS011;2971;52.420;7.080;2022-12-17T10:20:59;172.47;;;46.80;;
5890;SDS011;2971;52.420;7.080;2022-12-17T10:23:44;166.43;;;45.87;;
5890;SDS011;2971;52.420;7.080;2022-12-17T10:26:29;142.73;;;41.23;;
5890;SDS011;2971;52.420;7.080;2022-12-17T10:29:30;163.40;;;47.53;;
5890;SDS011;2971;52.420;7.080;2022-12-17T10:34:58;163.83;;;44.37;;
5890;SDS011;2971;52.420;7.080;2022-12-17T10:37:42;166.70;;;46.97;;
5890;SDS011;2971;52.420;7.080;2022-12-17T10:40:33;146.77;;;44.13;;
5890;SDS011;2971;52.420;7.080;2022-12-17T10:43:37;145.47;;;44.77;;
5890;SDS011;2971;52.420;7.080;2022-12-17T10:46:28;160.47;;;47.40;;
5890;SDS011;2971;52.420;7.080;2022-12-17T10:52:00;158.33;;;46.10;;
5890;SDS011;2971;52.420;7.080;2022-12-17T10:54:53;164.40;;;47.20;;
5890;SDS011;2971;52.420;7.080;2022-12-17T10:57:39;159.40;;;45.10;;
5890;SDS011;2971;52.420;7.080;2022-12-17T11:00:24;143.30;;;42.90;;
5890;SDS011;2971;52.420;7.080;2022-12-17T11:03:22;148.33;;;44.67;;
5890;SDS011;2971;52.420;7.080;2022-12-17T11:06:14;161.03;;;43.43;;
5890;SDS011;2971;52.420;7.080;2022-12-17T11:09:02;149.37;;;43.40;;
5890;SDS011;2971;52.420;7.080;2022-12-17T11:11:46;153.03;;;46.17;;
5890;SDS011;2971;52.420;7.080;2022-12-17T11:14:31;128.37;;;41.83;;
5890;SDS011;2971;52.420;7.080;2022-12-17T11:17:17;126.93;;;41.43;;
5890;SDS011;2971;52.420;7.080;2022-12-17T11:20:04;143.70;;;42.43;;
5890;SDS011;2971;52.420;7.080;2022-12-17T11:22:50;138.00;;;44.10;;
5890;SDS011;2971;52.420;7.080;2022-12-17T11:28:32;143.37;;;45.20;;
5890;SDS011;2971;52.420;7.080;2022-12-17T11:34:04;146.63;;;48.33;;
5890;SDS011;2971;52.420;7.080;2022-12-17T11:36:54;142.07;;;47.10;;
5890;SDS011;2971;52.420;7.080;2022-12-17T11:45:30;137.50;;;44.30;;
5890;SDS011;2971;52.420;7.080;2022-12-17T11:48:21;146.60;;;47.50;;
5890;SDS011;2971;52.420;7.080;2022-12-17T12:00:00;145.47;;;45.03;;
5890;SDS011;2971;52.420;7.080;2022-12-17T12:02:59;138.10;;;42.97;;
5890;SDS011;2971;52.420;7.080;2022-12-17T12:05:54;163.83;;;48.03;;
5890;SDS011;2971;52.420;7.080;2022-12-17T12:08:49;162.00;;;49.87;;
5890;SDS011;2971;52.420;7.080;2022-12-17T12:14:50;160.13;;;50.30;;
5890;SDS011;2971;52.420;7.080;2022-12-17T12:23:56;161.13;;;51.17;;
5890;SDS011;2971;52.420;7.080;2022-12-17T12:30:18;171.00;;;54.97;;
5890;SDS011;2971;52.420;7.080;2022-12-17T12:33:08;150.90;;;50.97;;
5890;SDS011;2971;52.420;7.080;2022-12-17T12:36:02;139.87;;;46.70;;
5890;SDS011;2971;52.420;7.080;2022-12-17T12:38:50;146.67;;;48.53;;
5890;SDS011;2971;52.420;7.080;2022-12-17T12:47:38;171.57;;;55.20;;
5890;SDS011;2971;52.420;7.080;2022-12-17T12:53:12;154.67;;;52.27;;
5890;SDS011;2971;52.420;7.080;2022-12-17T12:55:56;154.50;;;53.43;;
5890;SDS011;2971;52.420;7.080;2022-12-17T12:58:40;150.40;;;55.73;;
5890;SDS011;2971;52.420;7.080;2022-12-17T13:01:33;156.47;;;54.43;;
5890;SDS011;2971;52.420;7.080;2022-12-17T13:07:26;152.70;;;53.80;;
5890;SDS011;2971;52.420;7.080;2022-12-17T13:09:54;150.40;;;55.43;;
5890;SDS011;2971;52.420;7.080;2022-12-17T13:12:22;138.60;;;52.83;;
5890;SDS011;2971;52.420;7.080;2022-12-17T13:15:08;144.93;;;58.80;;
5890;SDS011;2971;52.420;7.080;2022-12-17T13:18:27;144.30;;;55.83;;
5890;SDS011;2971;52.420;7.080;2022-12-17T13:20:55;145.40;;;57.23;;
5890;SDS011;2971;52.420;7.080;2022-12-17T13:23:41;143.47;;;54.97;;
5890;SDS011;2971;52.420;7.080;2022-12-17T13:28:48;123.67;;;52.23;;
5890;SDS011;2971;52.420;7.080;2022-12-17T13:31:24;127.60;;;51.47;;
5890;SDS011;2971;52.420;7.080;2022-12-17T13:36:44;128.80;;;52.27;;
5890;SDS011;2971;52.420;7.080;2022-12-17T13:45:04;147.50;;;58.53;;
5890;SDS011;2971;52.420;7.080;2022-12-17T13:47:31;149.50;;;59.97;;
5890;SDS011;2971;52.420;7.080;2022-12-17T13:49:59;159.90;;;62.03;;
5890;SDS011;2971;52.420;7.080;2022-12-17T13:52:26;160.37;;;62.20;;
5890;SDS011;2971;52.420;7.080;2022-12-17T13:54:53;167.37;;;61.73;;
5890;SDS011;2971;52.420;7.080;2022-12-17T13:57:20;161.50;;;63.07;;
5890;SDS011;2971;52.420;7.080;2022-12-17T13:59:51;160.30;;;62.73;;
5890;SDS011;2971;52.420;7.080;2022-12-17T14:02:27;151.30;;;56.90;;
5890;SDS011;2971;52.420;7.080;2022-12-17T14:04:54;161.43;;;59.67;;
5890;SDS011;2971;52.420;7.080;2022-12-17T14:07:20;149.40;;;56.17;;
5890;SDS011;2971;52.420;7.080;2022-12-17T14:09:46;148.73;;;56.37;;
5890;SDS011;2971;52.420;7.080;2022-12-17T14:12:13;149.40;;;58.47;;
5890;SDS011;2971;52.420;7.080;2022-12-17T14:15:02;143.63;;;57.67;;
5890;SDS011;2971;52.420;7.080;2022-12-17T14:17:45;135.70;;;57.73;;
5890;SDS011;2971;52.420;7.080;2022-12-17T14:20:16;137.77;;;55.43;;
5890;SDS011;2971;52.420;7.080;2022-12-17T14:22:48;145.47;;;57.93;;
5890;SDS011;2971;52.420;7.080;2022-12-17T14:25:19;139.47;;;59.87;;
5890;SDS011;2971;52.420;7.080;2022-12-17T14:27:54;141.83;;;59.17;;
5890;SDS011;2971;52.420;7.080;2022-12-17T14:33:02;132.27;;;57.07;;
5890;SDS011;2971;52.420;7.080;2022-12-17T14:35:33;138.10;;;59.47;;
5890;SDS011;2971;52.420;7.080;2022-12-17T14:37:59;137.80;;;59.37;;
5890;SDS011;2971;52.420;7.080;2022-12-17T14:40:25;133.73;;;55.63;;
5890;SDS011;2971;52.420;7.080;2022-12-17T14:42:51;125.67;;;55.87;;
5890;SDS011;2971;52.420;7.080;2022-12-17T14:45:22;140.97;;;61.27;;
5890;SDS011;2971;52.420;7.080;2022-12-17T14:55:20;141.23;;;59.93;;
5890;SDS011;2971;52.420;7.080;2022-12-17T14:57:49;136.80;;;58.23;;
5890;SDS011;2971;52.420;7.080;2022-12-17T15:00:15;142.23;;;60.93;;
5890;SDS011;2971;52.420;7.080;2022-12-17T15:02:42;137.13;;;62.30;;
5890;SDS011;2971;52.420;7.080;2022-12-17T15:05:11;133.27;;;58.43;;
5890;SDS011;2971;52.420;7.080;2022-12-17T15:07:38;142.67;;;61.07;;
5890;SDS011;2971;52.420;7.080;2022-12-17T15:10:14;138.87;;;60.80;;
5890;SDS011;2971;52.420;7.080;2022-12-17T15:12:41;145.80;;;60.50;;
5890;SDS011;2971;52.420;7.080;2022-12-17T15:15:10;140.87;;;59.63;;
5890;SDS011;2971;52.420;7.080;2022-12-17T15:17:37;142.83;;;59.37;;
5890;SDS011;2971;52.420;7.080;2022-12-17T15:20:03;147.70;;;60.47;;
5890;SDS011;2971;52.420;7.080;2022-12-17T15:22:29;147.27;;;60.80;;
5890;SDS011;2971;52.420;7.080;2022-12-17T15:24:54;142.90;;;62.70;;
5890;SDS011;2971;52.420;7.080;2022-12-17T15:27:21;147.57;;;61.57;;
5890;SDS011;2971;52.420;7.080;2022-12-17T15:29:46;135.60;;;58.17;;
5890;SDS011;2971;52.420;7.080;2022-12-17T15:32:19;143.47;;;57.90;;
5890;SDS011;2971;52.420;7.080;2022-12-17T15:34:47;145.87;;;57.63;;
5890;SDS011;2971;52.420;7.080;2022-12-17T15:37:13;145.30;;;57.37;;
5890;SDS011;2971;52.420;7.080;2022-12-17T15:39:39;149.80;;;57.27;;
5890;SDS011;2971;52.420;7.080;2022-12-17T15:42:04;143.37;;;55.13;;
5890;SDS011;2971;52.420;7.080;2022-12-17T15:44:48;147.83;;;57.10;;
5890;SDS011;2971;52.420;7.080;2022-12-17T15:47:13;157.17;;;60.10;;
5890;SDS011;2971;52.420;7.080;2022-12-17T15:49:39;149.23;;;55.10;;
5890;SDS011;2971;52.420;7.080;2022-12-17T15:52:04;156.97;;;61.83;;
5890;SDS011;2971;52.420;7.080;2022-12-17T15:54:29;145.37;;;56.70;;
5890;SDS011;2971;52.420;7.080;2022-12-17T15:56:55;157.20;;;59.33;;
5890;SDS011;2971;52.420;7.080;2022-12-17T15:59:20;179.10;;;63.87;;
5890;SDS011;2971;52.420;7.080;2022-12-17T16:01:46;152.47;;;57.63;;
5890;SDS011;2971;52.420;7.080;2022-12-17T16:04:12;152.37;;;55.37;;
5890;SDS011;2971;52.420;7.080;2022-12-17T16:06:37;151.73;;;56.73;;
5890;SDS011;2971;52.420;7.080;2022-12-17T16:09:02;144.30;;;55.83;;
5890;SDS011;2971;52.420;7.080;2022-12-17T16:11:28;139.20;;;53.43;;
5890;SDS011;2971;52.420;7.080;2022-12-17T16:13:54;138.50;;;53.73;;
5890;SDS011;2971;52.420;7.080;2022-12-17T16:16:20;138.40;;;54.67;;
5890;SDS011;2971;52.420;7.080;2022-12-17T16:18:46;135.00;;;50.97;;
5890;SDS011;2971;52.420;7.080;2022-12-17T16:21:11;140.23;;;52.27;;
5890;SDS011;2971;52.420;7.080;2022-12-17T16:23:37;137.00;;;51.53;;
5890;SDS011;2971;52.420;7.080;2022-12-17T16:26:03;133.90;;;53.07;;
5890;SDS011;2971;52.420;7.080;2022-12-17T16:28:30;141.23;;;53.67;;
5890;SDS011;2971;52.420;7.080;2022-12-17T16:33:35;138.40;;;55.20;;
5890;SDS011;2971;52.420;7.080;2022-12-17T16:36:02;135.90;;;52.33;;
5890;SDS011;2971;52.420;7.080;2022-12-17T16:38:28;123.47;;;51.77;;
5890;SDS011;2971;52.420;7.080;2022-12-17T16:40:56;130.10;;;52.47;;
5890;SDS011;2971;52.420;7.080;2022-12-17T16:43:26;134.63;;;54.97;;
5890;SDS011;2971;52.420;7.080;2022-12-17T16:45:52;129.40;;;51.47;;
5890;SDS011;2971;52.420;7.080;2022-12-17T16:48:19;127.47;;;51.43;;
5890;SDS011;2971;52.420;7.080;2022-12-17T16:50:45;126.03;;;50.53;;
5890;SDS011;2971;52.420;7.080;2022-12-17T16:53:11;121.67;;;52.17;;
5890;SDS011;2971;52.420;7.080;2022-12-17T16:55:47;120.87;;;50.43;;
5890;SDS011;2971;52.420;7.080;2022-12-17T16:58:16;113.80;;;49.83;;
5890;SDS011;2971;52.420;7.080;2022-12-17T17:00:42;110.20;;;47.33;;
5890;SDS011;2971;52.420;7.080;2022-12-17T17:03:07;111.77;;;46.73;;
5890;SDS011;2971;52.420;7.080;2022-12-17T17:05:34;126.87;;;50.10;;
5890;SDS011;2971;52.420;7.080;2022-12-17T17:08:01;124.20;;;50.27;;
5890;SDS011;2971;52.420;7.080;2022-12-17T17:10:28;119.63;;;48.97;;
5890;SDS011;2971;52.420;7.080;2022-12-17T17:12:54;127.63;;;51.67;;
5890;SDS011;2971;52.420;7.080;2022-12-17T17:15:20;134.23;;;52.43;;
5890;SDS011;2971;52.420;7.080;2022-12-17T17:17:46;129.73;;;52.87;;
5890;SDS011;2971;52.420;7.080;2022-12-17T17:20:13;135.70;;;52.47;;
5890;SDS011;2971;52.420;7.080;2022-12-17T17:22:39;138.80;;;51.77;;